Nashville, Iowa
Current Conditions -  °F | °C
As of 12:53 PM on Thursday 30 Oct 2014 (Local Time) from KDBQ Reporting Station
Overcast Overcast  
Wind Chill: 43°   Ceiling: 10000
Heat Index: 47°   Visibility: 10mi
Dew Point: 37°   Wind: 8mph
Humidity: 68%   Direction: 210°SSW
Pressure: 30.07"   Gusts: NA
Location:  42.12°N, 90.7234°W
Report Text: KDBQ 301753Z 21007KT 10SM SCT060 OVC100 08/03 A3007 RMK AO2 SLP193 T00830028 10083 20006 58007
Loading
Personal Weather Stations






























Interactive Weather Map
Tropical Storm Tracking
New forecast layout! Learn more

10-Day Weather Forecast

Advertisements
Track Severe Weather on mobile